Share

Keswick, IA

Dietze Weather Station (KIAMILLE3) Elev 883 ft | 41.57 °N, 92.16 °W | Change Station

Current weather conditions updated 2 seconds ago

Mostly Cloudy
Mostly Cloudy
55.6 °F
Feels Like 55.6 °F
N
7.8
Wind Variable Wind from SE
Gusts 13.0 mph
Sunrise 6:27 AM
Sunset 7:50 PM
Moon Waning Gibbous

Tomorrow is forecast to be Cooler than today.

Pressure 29.87 in
Visibility 10.0 miles
Clouds Mostly Cloudy 9500 ft
Dew Point 33 °F
Humidity 43%
Rainfall 0.00 in
Snow Depth Not available.
UV 0 out of 16
Pollen 9.60 out of 12
Air Quality Not available.
Flu Activity Sporadic
METAR KOOA 170055Z AUTO 16014KT 10SM BKN095 13/01 A2987 RMK AO2 T01250006

More Conditions Fewer Conditions

Pressure 29.87 in
Visibility 10.0 miles
Clouds Mostly Cloudy 9500 ft
Dew Point 33 °F
Humidity 43%
Rainfall 0.00 in
Snow Depth Not available.
UV 0 out of 16
Pollen 9.60 out of 12
Air Quality Not available.
Flu Activity Sporadic
METAR KOOA 170055Z AUTO 16014KT 10SM BKN095 13/01 A2987 RMK AO2 T01250006

More Conditions Fewer Conditions

10-Day Forecast

Almanac

Astronomy

Apr. 16, 2014 Rise Set
Actual Time 6:27 AM CDT 7:50 PM CDT
Civil Twilight 5:58 AM CDT 8:19 PM CDT
Nautical Twilight 5:24 AM CDT 8:54 PM CDT
Astronomical Twilight 4:47 AM CDT 9:30 PM CDT
Moon 9:35 PM CDT (4/16) 7:14 AM CDT (4/16)
Length of Visible Light 14h 20m
Length of Day
13h 22m
Tomorrow will be 2m 37s longer.
Waning Gibbous, 97% of the Moon is Illuminated
Today
Waning Gibbous
Apr 22
Last Quarter
Apr 29
New
May 6
First Quarter
May 14
Full

Today's Extremes

State Highs State Lows

Community

  • symphony in blue....
    symphony in blue....
  • Dawn Surprise
    Dawn Surprise
  • Yucca delight
    Yucca delight
  • Sunset inside of the Ocean
    Sunset inside of the Ocean
  • Lunar eclipse 15 April 2014
    Lunar eclipse 15 April 2014

WunderPhotos

Upload Photos

1,701,783 photos uploaded!

WunderBlogs® & News

Nearby

Snow Depth

Station Depth Elevation
No new snow has been reported.

Coastal Water Temperatures

Place Temperature
No Stations Reporting

Earthquake Activity

City Distance Mag. Time & Date
No recent earthquake activity has been reported nearby.
Minimum magnitude displayed is 2.5.

Nearby Weather Stations

Station Location Temp. Dew Point Humidity Wind Precip. Elev Updated Type
Dietze Weather Station, Millersburg, IA 55.6 °F 33 °F 43% SE  at  7.8 mph 0.00 in / hr 883 ft 8:21 PM CDT Rapid Fire
Williamsburg, IA 55.9 °F 26 °F 31% ENE  at  3.4 mph 0.00 in / hr 758 ft 8:21 PM CDT Rapid Fire
Oskaloosa, IA 56.7 °F 31 °F 38% NNW  at  0.0 mph 0.00 in / hr 856 ft 8:21 PM CDT Rapid Fire

Show More Stations Show Fewer Stations

What do you think?

We're not finished. Please let us know what you like, what you don't like, and what you are still missing.